Time;durP1;ratioP1;P1;durP2;ratioP2;P2;SDS_P1;SDS_P2;PMS_P1;PMS_P2;Temp;Humidity;BMP_temperature;BMP_pressure;BME280_temperature;BME280_humidity;BME280_pressure;Samples;Min_cycle;Max_cycle;Signal;HPM_P1;HPM_P2
2022/10/05 00:02:18;;;;;;;11.55;6.82;;;;;;;;;;4975154;28;89675;-65
2022/10/05 00:04:46;;;;;;;25.25;7.45;;;;;;;;;;4975717;28;88181;-65
2022/10/05 00:07:14;;;;;;;15.45;6.35;;;;;;;;;;4978457;28;88772;-67
2022/10/05 00:09:41;;;;;;;12.13;6.43;;;;;;;;;;4976506;28;89078;-66
2022/10/05 00:12:19;;;;;;;11.52;6.88;;;;;;;;;;4974537;28;88757;-66
2022/10/05 00:14:47;;;;;;;10.77;5.43;;;;;;;;;;4979372;28;88988;-66
2022/10/05 00:17:24;;;;;;;10.98;6.32;;;;;;;;;;4977511;28;89174;-66
2022/10/05 00:19:51;;;;;;;10.50;6.15;;;;;;;;;;4970968;28;88734;-66
2022/10/05 00:22:21;;;;;;;15.85;5.50;;;;;;;;;;4994080;28;88941;-67
2022/10/05 00:24:49;;;;;;;13.27;6.07;;;;;;;;;;4974305;28;88165;-66
2022/10/05 00:27:23;;;;;;;12.02;5.97;;;;;;;;;;4984120;28;88756;-66
2022/10/05 00:29:50;;;;;;;10.07;5.70;;;;;;;;;;4981731;28;90122;-65
2022/10/05 00:32:16;;;;;;;14.95;6.70;;;;;;;;;;4978032;28;89800;-66
2022/10/05 00:34:44;;;;;;;11.95;6.30;;;;;;;;;;4973850;28;90464;-66
2022/10/05 00:37:12;;;;;;;9.73;5.25;;;;;;;;;;4972710;28;88720;-66
2022/10/05 00:39:39;;;;;;;13.60;5.70;;;;;;;;;;4977943;28;88767;-66
2022/10/05 00:42:17;;;;;;;9.43;5.75;;;;;;;;;;4978180;28;88935;-66
2022/10/05 00:44:53;;;;;;;9.98;5.70;;;;;;;;;;4979081;28;87896;-66
2022/10/05 00:47:19;;;;;;;10.90;6.00;;;;;;;;;;4978844;28;90456;-66
2022/10/05 00:50:04;;;;;;;9.88;5.78;;;;;;;;;;4978787;28;89043;-67
2022/10/05 00:52:36;;;;;;;10.70;5.78;;;;;;;;;;4981338;28;88764;-66
2022/10/05 00:55:03;;;;;;;10.23;5.82;;;;;;;;;;4978831;28;90170;-68
2022/10/05 00:57:32;;;;;;;9.00;5.38;;;;;;;;;;4978670;28;88021;-66
2022/10/05 01:00:05;;;;;;;9.27;6.13;;;;;;;;;;4977843;28;88760;-66
2022/10/05 01:02:31;;;;;;;9.32;6.13;;;;;;;;;;4978892;28;89006;-65
2022/10/05 01:05:08;;;;;;;7.78;5.88;;;;;;;;;;4976857;28;88078;-66
2022/10/05 01:07:41;;;;;;;12.60;6.50;;;;;;;;;;4978330;28;88805;-66
2022/10/05 01:10:21;;;;;;;11.15;6.20;;;;;;;;;;4978728;28;88869;-66
2022/10/05 01:12:47;;;;;;;14.43;6.65;;;;;;;;;;4978703;28;88951;-67
2022/10/05 01:15:23;;;;;;;10.73;6.38;;;;;;;;;;4981277;28;88777;-66
2022/10/05 01:18:03;;;;;;;11.70;7.10;;;;;;;;;;4978847;28;88772;-65
2022/10/05 01:20:34;;;;;;;16.57;7.73;;;;;;;;;;4977010;28;90538;-66
2022/10/05 01:23:26;;;;;;;12.25;6.63;;;;;;;;;;4978632;28;89380;-66
2022/10/05 01:26:01;;;;;;;16.75;6.38;;;;;;;;;;4977894;28;88186;-66
2022/10/05 01:28:33;;;;;;;14.02;7.45;;;;;;;;;;4978148;28;89196;-66
2022/10/05 01:31:07;;;;;;;13.23;7.35;;;;;;;;;;4978670;28;90401;-66
2022/10/05 01:33:45;;;;;;;11.38;7.25;;;;;;;;;;4977758;28;88907;-65
2022/10/05 01:36:20;;;;;;;12.38;7.28;;;;;;;;;;4978830;28;87682;-65
2022/10/05 01:38:53;;;;;;;12.63;6.75;;;;;;;;;;4979372;28;88949;-65
2022/10/05 01:41:28;;;;;;;14.98;7.28;;;;;;;;;;4973196;28;88799;-66
2022/10/05 01:44:01;;;;;;;13.43;6.88;;;;;;;;;;4974059;28;89764;-66
2022/10/05 01:47:02;;;;;;;12.48;7.28;;;;;;;;;;4988066;28;87961;-66
2022/10/05 01:49:47;;;;;;;9.93;7.05;;;;;;;;;;4901122;28;89858;-66
2022/10/05 01:52:35;;;;;;;17.13;7.47;;;;;;;;;;4926815;28;88085;-67
2022/10/05 01:55:20;;;;;;;10.13;6.82;;;;;;;;;;4917460;28;89230;-67
2022/10/05 01:58:04;;;;;;;10.15;7.00;;;;;;;;;;4917295;28;89836;-66
2022/10/05 02:00:34;;;;;;;10.55;6.72;;;;;;;;;;4917242;28;88895;-66
2022/10/05 02:03:07;;;;;;;20.73;7.80;;;;;;;;;;4920317;28;87515;-66
2022/10/05 02:05:39;;;;;;;12.48;7.65;;;;;;;;;;4916907;28;88994;-66
2022/10/05 02:08:09;;;;;;;15.40;7.50;;;;;;;;;;4915857;28;88107;-66
2022/10/05 02:10:39;;;;;;;15.00;7.72;;;;;;;;;;4917336;28;88917;-66
2022/10/05 02:13:13;;;;;;;15.57;7.40;;;;;;;;;;4915041;28;88713;-67
2022/10/05 02:15:42;;;;;;;12.73;7.20;;;;;;;;;;4907607;28;88901;-67
2022/10/05 02:18:19;;;;;;;12.85;7.05;;;;;;;;;;4916704;28;89351;-66
2022/10/05 02:20:46;;;;;;;11.10;7.82;;;;;;;;;;4915629;28;89156;-66
2022/10/05 02:23:16;;;;;;;15.13;8.30;;;;;;;;;;4927589;28;88014;-65
2022/10/05 02:25:45;;;;;;;13.85;7.55;;;;;;;;;;4978477;28;90065;-66
2022/10/05 02:28:14;;;;;;;14.98;7.82;;;;;;;;;;4977247;28;87960;-66
2022/10/05 02:30:43;;;;;;;11.40;7.82;;;;;;;;;;4978157;28;88263;-66
2022/10/05 02:33:12;;;;;;;16.15;8.23;;;;;;;;;;4975509;28;89005;-66
2022/10/05 02:35:39;;;;;;;11.85;7.57;;;;;;;;;;4975077;28;88905;-66
2022/10/05 02:38:15;;;;;;;12.50;8.10;;;;;;;;;;4971934;28;89567;-65
2022/10/05 02:40:41;;;;;;;12.13;8.10;;;;;;;;;;4972871;28;89980;-66
2022/10/05 02:43:16;;;;;;;11.88;8.10;;;;;;;;;;4975144;28;88117;-65
2022/10/05 02:45:53;;;;;;;15.75;8.07;;;;;;;;;;4980713;28;88615;-66
2022/10/05 02:48:37;;;;;;;11.80;7.95;;;;;;;;;;4976744;28;88056;-66
2022/10/05 02:51:13;;;;;;;18.33;8.25;;;;;;;;;;4978263;28;89988;-65
2022/10/05 02:54:03;;;;;;;15.15;7.82;;;;;;;;;;4975718;28;88265;-66
2022/10/05 02:56:39;;;;;;;14.43;8.13;;;;;;;;;;4985836;28;88932;-65
2022/10/05 02:59:13;;;;;;;12.30;7.80;;;;;;;;;;4961770;28;90641;-66
2022/10/05 03:01:47;;;;;;;15.07;8.23;;;;;;;;;;4976233;28;89708;-66
2022/10/05 03:04:13;;;;;;;19.13;8.23;;;;;;;;;;4974591;28;88088;-66
2022/10/05 03:06:57;;;;;;;13.45;7.72;;;;;;;;;;4975615;28;88785;-66
2022/10/05 03:09:27;;;;;;;15.77;8.98;;;;;;;;;;4965602;28;90362;-66
2022/10/05 03:12:16;;;;;;;13.67;8.77;;;;;;;;;;4976989;28;90017;-65
2022/10/05 03:14:45;;;;;;;12.65;8.52;;;;;;;;;;4976829;28;90417;-66
2022/10/05 03:17:14;;;;;;;25.88;8.10;;;;;;;;;;4977248;28;88010;-66
2022/10/05 03:19:59;;;;;;;16.20;8.05;;;;;;;;;;4976419;28;90660;-66
2022/10/05 03:22:45;;;;;;;18.30;8.15;;;;;;;;;;4976707;28;89976;-66
2022/10/05 03:25:12;;;;;;;16.20;7.78;;;;;;;;;;4976313;28;88104;-66
2022/10/05 03:27:42;;;;;;;11.73;7.68;;;;;;;;;;4977182;28;89835;-67
2022/10/05 03:30:12;;;;;;;19.45;8.43;;;;;;;;;;4982667;28;89948;-66
2022/10/05 03:32:38;;;;;;;14.05;7.57;;;;;;;;;;4990392;28;88214;-66
2022/10/05 03:35:14;;;;;;;19.55;7.78;;;;;;;;;;4976968;28;89022;-66
2022/10/05 03:37:40;;;;;;;13.63;7.63;;;;;;;;;;4972741;28;89251;-66
2022/10/05 03:40:24;;;;;;;15.07;7.28;;;;;;;;;;4978098;28;89804;-66
2022/10/05 03:42:56;;;;;;;13.10;7.38;;;;;;;;;;4976706;28;89014;-66
2022/10/05 03:45:31;;;;;;;15.45;8.07;;;;;;;;;;4962475;28;87851;-66
2022/10/05 03:48:14;;;;;;;13.20;7.53;;;;;;;;;;4974678;28;88074;-66
2022/10/05 03:50:44;;;;;;;13.82;7.25;;;;;;;;;;4965156;28;90071;-66
2022/10/05 03:53:20;;;;;;;11.00;6.75;;;;;;;;;;4985109;28;88838;-65
2022/10/05 03:55:50;;;;;;;9.27;7.15;;;;;;;;;;4984299;28;90844;-66
2022/10/05 03:58:26;;;;;;;15.20;6.93;;;;;;;;;;4987259;28;88048;-65
2022/10/05 04:00:56;;;;;;;8.35;6.47;;;;;;;;;;4984258;28;89130;-66
2022/10/05 04:03:29;;;;;;;13.35;6.53;;;;;;;;;;4988102;28;89313;-66
2022/10/05 04:06:16;;;;;;;10.15;5.97;;;;;;;;;;4980054;28;89044;-66
2022/10/05 04:09:04;;;;;;;9.77;5.93;;;;;;;;;;4987187;28;88754;-66
2022/10/05 04:11:34;;;;;;;9.60;6.05;;;;;;;;;;4999513;28;89207;-65
2022/10/05 04:14:03;;;;;;;11.18;6.10;;;;;;;;;;4986424;28;88938;-66
2022/10/05 04:16:33;;;;;;;11.25;6.05;;;;;;;;;;4977144;28;89830;-66
2022/10/05 04:19:12;;;;;;;9.48;5.90;;;;;;;;;;4979111;28;88795;-67
2022/10/05 04:21:52;;;;;;;9.23;5.93;;;;;;;;;;4979479;28;90539;-65
2022/10/05 04:24:39;;;;;;;11.27;6.38;;;;;;;;;;4979419;28;88044;-65
2022/10/05 04:27:08;;;;;;;12.23;5.82;;;;;;;;;;4979855;28;88373;-66
2022/10/05 04:29:39;;;;;;;11.40;6.53;;;;;;;;;;4979069;28;89042;-66
2022/10/05 04:32:14;;;;;;;11.23;6.00;;;;;;;;;;4979335;28;89367;-65
2022/10/05 04:35:07;;;;;;;7.13;5.60;;;;;;;;;;4979395;28;88161;-66
2022/10/05 04:37:42;;;;;;;7.50;5.30;;;;;;;;;;4976906;28;88700;-65
2022/10/05 04:40:30;;;;;;;27.33;6.45;;;;;;;;;;4982065;28;89149;-66
2022/10/05 04:43:08;;;;;;;9.35;5.88;;;;;;;;;;4979198;28;88793;-66
2022/10/05 04:45:53;;;;;;;10.57;5.07;;;;;;;;;;4978910;28;90793;-66
2022/10/05 04:48:29;;;;;;;9.50;5.63;;;;;;;;;;4978428;28;88123;-66
2022/10/05 04:51:05;;;;;;;10.82;5.53;;;;;;;;;;4979097;28;88812;-65
2022/10/05 04:53:52;;;;;;;10.68;5.22;;;;;;;;;;4970131;28;89603;-66
2022/10/05 04:56:28;;;;;;;9.38;4.93;;;;;;;;;;4976748;28;88209;-67
2022/10/05 04:59:01;;;;;;;8.40;4.65;;;;;;;;;;4973718;28;89730;-66
2022/10/05 05:01:36;;;;;;;7.00;4.50;;;;;;;;;;4978646;28;90082;-66
2022/10/05 05:04:21;;;;;;;7.07;4.18;;;;;;;;;;4980761;28;88874;-65
2022/10/05 05:07:05;;;;;;;8.05;3.80;;;;;;;;;;4978468;28;89018;-66
2022/10/05 05:09:46;;;;;;;5.85;3.72;;;;;;;;;;4978992;28;89021;-65
2022/10/05 05:12:15;;;;;;;5.72;3.75;;;;;;;;;;4978160;28;88772;-66
2022/10/05 05:15:00;;;;;;;8.18;3.45;;;;;;;;;;4978157;28;89061;-66
2022/10/05 05:17:46;;;;;;;5.93;3.70;;;;;;;;;;4976795;28;88007;-66
2022/10/05 05:20:18;;;;;;;6.43;3.55;;;;;;;;;;4977942;28;88761;-65
2022/10/05 05:22:44;;;;;;;5.88;4.00;;;;;;;;;;4961966;28;89043;-65
2022/10/05 05:25:18;;;;;;;5.82;4.00;;;;;;;;;;4979307;28;88017;-65
2022/10/05 05:27:56;;;;;;;10.63;4.57;;;;;;;;;;4980261;28;89167;-65
2022/10/05 05:30:31;;;;;;;5.30;4.13;;;;;;;;;;4960502;28;88523;-65
2022/10/05 05:33:04;;;;;;;6.97;4.20;;;;;;;;;;4966848;28;88103;-65
2022/10/05 05:35:33;;;;;;;9.48;4.30;;;;;;;;;;4976134;28;90345;-64
2022/10/05 05:38:15;;;;;;;8.55;3.92;;;;;;;;;;4975321;28;89289;-65
2022/10/05 05:40:47;;;;;;;8.35;4.20;;;;;;;;;;4982945;28;90407;-65
2022/10/05 05:43:21;;;;;;;14.35;4.75;;;;;;;;;;4977460;28;90046;-65
2022/10/05 05:45:52;;;;;;;9.50;4.60;;;;;;;;;;4973713;28;88185;-65
2022/10/05 05:48:19;;;;;;;7.93;4.82;;;;;;;;;;4977404;28;89763;-66
2022/10/05 05:50:57;;;;;;;8.98;4.38;;;;;;;;;;4984515;28;89023;-66
2022/10/05 05:53:42;;;;;;;6.43;5.00;;;;;;;;;;4985110;28;89817;-66
2022/10/05 05:56:20;;;;;;;11.20;4.70;;;;;;;;;;4972594;28;88565;-65
2022/10/05 05:58:55;;;;;;;10.10;5.32;;;;;;;;;;4978353;28;88433;-66
2022/10/05 06:01:24;;;;;;;9.93;5.75;;;;;;;;;;4977072;28;88723;-67
2022/10/05 06:04:08;;;;;;;11.25;4.95;;;;;;;;;;4969480;28;89694;-65
2022/10/05 06:06:37;;;;;;;9.60;5.53;;;;;;;;;;4967814;28;88206;-65
2022/10/05 06:09:05;;;;;;;11.73;5.95;;;;;;;;;;4974618;28;88898;-67
2022/10/05 06:11:36;;;;;;;8.45;5.10;;;;;;;;;;4975191;28;89021;-65
2022/10/05 06:14:14;;;;;;;10.60;5.70;;;;;;;;;;4980135;28;88910;-70
2022/10/05 06:16:44;;;;;;;11.32;5.55;;;;;;;;;;4974503;28;88963;-66
2022/10/05 06:19:20;;;;;;;13.68;6.05;;;;;;;;;;4986281;28;88039;-66
2022/10/05 06:21:59;;;;;;;11.82;5.57;;;;;;;;;;4978309;28;88780;-66
2022/10/05 06:24:30;;;;;;;14.70;6.25;;;;;;;;;;4973142;28;89499;-67
2022/10/05 06:27:12;;;;;;;9.63;6.05;;;;;;;;;;4989232;28;88307;-65
2022/10/05 06:29:54;;;;;;;10.90;5.57;;;;;;;;;;4976655;28;89787;-66
2022/10/05 06:32:29;;;;;;;8.38;5.82;;;;;;;;;;4976222;28;89013;-66
2022/10/05 06:35:04;;;;;;;9.20;5.00;;;;;;;;;;4962066;28;89235;-65
2022/10/05 06:37:54;;;;;;;7.35;5.50;;;;;;;;;;4980324;28;90035;-65
2022/10/05 06:40:35;;;;;;;12.80;5.83;;;;;;;;;;4917088;28;88179;-66
2022/10/05 06:43:01;;;;;;;9.13;5.20;;;;;;;;;;4917186;28;89928;-67
2022/10/05 06:45:30;;;;;;;10.18;4.95;;;;;;;;;;4914570;28;89389;-65
2022/10/05 06:48:08;;;;;;;8.57;4.80;;;;;;;;;;4915653;28;87477;-66
2022/10/05 06:50:41;;;;;;;9.40;5.50;;;;;;;;;;4924674;28;88917;-66
2022/10/05 06:53:16;;;;;;;5.65;4.85;;;;;;;;;;4915815;28;88864;-65
2022/10/05 06:55:42;;;;;;;7.60;4.70;;;;;;;;;;4915899;28;88888;-66
2022/10/05 06:58:26;;;;;;;7.22;4.85;;;;;;;;;;4918914;28;89490;-66
2022/10/05 07:01:02;;;;;;;7.43;4.85;;;;;;;;;;4926588;28;88930;-64
2022/10/05 07:03:34;;;;;;;10.07;5.15;;;;;;;;;;4915151;28;88267;-66
2022/10/05 07:06:14;;;;;;;8.98;4.68;;;;;;;;;;4916152;28;89009;-66
2022/10/05 07:08:59;;;;;;;7.60;4.80;;;;;;;;;;4915496;28;88225;-67
2022/10/05 07:11:28;;;;;;;9.63;5.03;;;;;;;;;;4915443;28;88770;-66
2022/10/05 07:14:13;;;;;;;9.90;5.20;;;;;;;;;;4916663;28;88279;-65
2022/10/05 07:16:48;;;;;;;8.20;4.82;;;;;;;;;;4929592;28;91648;-65
2022/10/05 07:19:33;;;;;;;7.55;4.72;;;;;;;;;;4976461;28;88834;-65
2022/10/05 07:22:17;;;;;;;9.95;4.68;;;;;;;;;;4977090;28;90733;-66
2022/10/05 07:24:58;;;;;;;12.55;4.38;;;;;;;;;;4991014;28;90478;-65
2022/10/05 07:27:26;;;;;;;12.93;4.45;;;;;;;;;;4977718;28;88156;-65
2022/10/05 07:30:01;;;;;;;7.88;3.78;;;;;;;;;;4980298;28;91271;-66
2022/10/05 07:32:33;;;;;;;8.27;4.20;;;;;;;;;;4980171;28;89817;-67
2022/10/05 07:35:08;;;;;;;7.60;4.47;;;;;;;;;;4979676;28;89982;-65
2022/10/05 07:37:53;;;;;;;7.68;4.55;;;;;;;;;;4981783;28;87953;-65
2022/10/05 07:40:24;;;;;;;5.78;3.70;;;;;;;;;;4981299;28;89178;-65
2022/10/05 07:42:56;;;;;;;5.78;3.80;;;;;;;;;;4985228;28;88925;-64
2022/10/05 07:45:32;;;;;;;9.35;4.45;;;;;;;;;;4983761;28;88911;-64
2022/10/05 07:48:03;;;;;;;10.00;4.50;;;;;;;;;;4991037;28;90754;-65
2022/10/05 07:50:34;;;;;;;8.55;3.53;;;;;;;;;;4999640;28;89048;-64
2022/10/05 07:53:03;;;;;;;5.53;3.75;;;;;;;;;;4979739;28;91201;-65
2022/10/05 07:55:35;;;;;;;14.70;3.80;;;;;;;;;;4999441;28;88180;-65
2022/10/05 07:58:21;;;;;;;7.88;4.00;;;;;;;;;;4981108;28;88569;-64
2022/10/05 08:01:07;;;;;;;11.95;3.55;;;;;;;;;;4979692;28;90181;-66
2022/10/05 08:03:45;;;;;;;6.07;4.60;;;;;;;;;;4979632;28;89930;-66
2022/10/05 08:06:16;;;;;;;6.03;3.83;;;;;;;;;;4980604;28;89020;-65
2022/10/05 08:08:42;;;;;;;7.15;3.90;;;;;;;;;;4981948;28;88008;-65
2022/10/05 08:11:21;;;;;;;8.07;4.03;;;;;;;;;;4985759;28;88253;-65
2022/10/05 08:13:59;;;;;;;7.95;4.00;;;;;;;;;;4999985;28;88762;-65
2022/10/05 08:16:28;;;;;;;6.07;4.00;;;;;;;;;;4987174;28;90143;-65
2022/10/05 08:18:57;;;;;;;5.88;3.85;;;;;;;;;;4969623;28;88093;-65
2022/10/05 08:21:38;;;;;;;4.80;3.75;;;;;;;;;;4979248;28;88782;-65
2022/10/05 08:24:22;;;;;;;7.88;4.03;;;;;;;;;;4995338;28;88963;-64
2022/10/05 08:26:51;;;;;;;6.47;4.00;;;;;;;;;;5000187;28;88951;-65
2022/10/05 08:29:36;;;;;;;5.45;3.95;;;;;;;;;;4988343;28;88741;-65
2022/10/05 08:32:16;;;;;;;5.13;4.10;;;;;;;;;;4992812;28;89234;-65
2022/10/05 08:34:48;;;;;;;7.40;3.60;;;;;;;;;;4977799;28;89197;-65
2022/10/05 08:37:22;;;;;;;4.55;3.80;;;;;;;;;;4962042;28;89934;-65
2022/10/05 08:39:55;;;;;;;9.65;3.95;;;;;;;;;;4959913;28;88722;-65
2022/10/05 08:42:24;;;;;;;6.97;3.78;;;;;;;;;;4994064;28;89451;-66
2022/10/05 08:45:09;;;;;;;7.47;3.63;;;;;;;;;;4999901;28;90013;-66
2022/10/05 08:47:44;;;;;;;4.75;3.38;;;;;;;;;;4969624;28;88476;-66
2022/10/05 08:50:10;;;;;;;5.80;3.90;;;;;;;;;;4968171;28;89959;-67
2022/10/05 08:52:43;;;;;;;10.77;4.28;;;;;;;;;;5002406;28;88089;-64
2022/10/05 08:55:09;;;;;;;10.48;3.50;;;;;;;;;;4977264;28;89841;-66
2022/10/05 08:57:45;;;;;;;7.32;3.20;;;;;;;;;;4968307;28;89344;-66
2022/10/05 09:00:15;;;;;;;5.40;3.45;;;;;;;;;;4977661;28;88079;-66
2022/10/05 09:02:41;;;;;;;6.97;3.42;;;;;;;;;;4998393;28;88798;-65
2022/10/05 09:05:08;;;;;;;4.90;3.40;;;;;;;;;;4998925;28;89493;-65
2022/10/05 09:07:34;;;;;;;7.88;3.58;;;;;;;;;;4998423;28;88055;-66
2022/10/05 09:10:03;;;;;;;5.57;3.20;;;;;;;;;;4976951;28;89154;-65
2022/10/05 09:12:47;;;;;;;4.35;3.00;;;;;;;;;;4979221;28;89202;-65
2022/10/05 09:15:22;;;;;;;3.00;2.78;;;;;;;;;;4981769;28;89052;-65
2022/10/05 09:18:16;;;;;;;7.97;2.83;;;;;;;;;;4977582;28;90061;-65
2022/10/05 09:20:42;;;;;;;;;;;;;;;;;;4994678;28;89033;-65
2022/10/05 09:23:16;;;;;;;2.92;2.72;;;;;;;;;;5000221;28;118894;-66
2022/10/05 09:25:51;;;;;;;5.88;2.90;;;;;;;;;;4999545;28;90075;-65
2022/10/05 09:28:21;;;;;;;3.80;2.80;;;;;;;;;;4988188;28;90274;-66
2022/10/05 09:31:01;;;;;;;8.23;3.13;;;;;;;;;;4985088;28;88939;-66
2022/10/05 09:33:44;;;;;;;8.18;2.95;;;;;;;;;;4998067;28;89121;-66
2022/10/05 09:36:11;;;;;;;8.90;2.75;;;;;;;;;;4998841;28;87967;-66
2022/10/05 09:39:03;;;;;;;5.63;2.70;;;;;;;;;;5001754;28;88760;-65
2022/10/05 09:41:29;;;;;;;3.85;2.90;;;;;;;;;;4979730;28;88232;-65
2022/10/05 09:44:02;;;;;;;4.22;2.47;;;;;;;;;;4996273;28;88972;-64
2022/10/05 09:46:35;;;;;;;4.95;2.30;;;;;;;;;;4972724;28;94080;-66
2022/10/05 09:49:01;;;;;;;5.22;2.60;;;;;;;;;;4992285;28;92868;-66
2022/10/05 09:51:36;;;;;;;2.67;2.20;;;;;;;;;;4980685;28;92456;-64
2022/10/05 09:54:21;;;;;;;13.60;2.95;;;;;;;;;;4975918;28;94774;-64
2022/10/05 09:56:56;;;;;;;4.28;2.60;;;;;;;;;;4974180;28;95312;-65
2022/10/05 09:59:41;;;;;;;6.10;3.15;;;;;;;;;;4973647;28;95543;-65
2022/10/05 10:02:15;;;;;;;10.07;3.30;;;;;;;;;;4995390;28;93365;-65
2022/10/05 10:05:03;;;;;;;4.10;2.95;;;;;;;;;;4995794;28;93245;-64
2022/10/05 10:07:41;;;;;;;4.13;2.78;;;;;;;;;;4994598;28;95207;-64
2022/10/05 10:10:28;;;;;;;5.63;2.88;;;;;;;;;;4990919;28;93129;-65
2022/10/05 10:13:12;;;;;;;7.28;3.42;;;;;;;;;;4958271;28;94312;-64
2022/10/05 10:15:39;;;;;;;8.10;2.92;;;;;;;;;;4964970;28;91673;-65
2022/10/05 10:18:11;;;;;;;11.85;3.40;;;;;;;;;;4975368;28;93245;-67
2022/10/05 10:20:44;;;;;;;4.78;3.20;;;;;;;;;;4974066;28;93416;-65
2022/10/05 10:23:26;;;;;;;5.90;2.97;;;;;;;;;;4986245;28;96902;-64
2022/10/05 10:26:01;;;;;;;7.05;3.28;;;;;;;;;;4998570;28;92465;-64
2022/10/05 10:28:30;;;;;;;7.38;3.38;;;;;;;;;;4995096;28;93484;-65
2022/10/05 10:31:15;;;;;;;8.50;2.95;;;;;;;;;;4987675;28;92481;-64
2022/10/05 10:33:47;;;;;;;7.00;3.45;;;;;;;;;;4994769;28;94342;-65
2022/10/05 10:36:36;;;;;;;7.68;3.53;;;;;;;;;;4981253;28;93399;-65
2022/10/05 10:39:02;;;;;;;7.72;4.03;;;;;;;;;;4955585;28;92439;-65
2022/10/05 10:41:36;;;;;;;15.13;3.97;;;;;;;;;;4965516;28;93160;-64
2022/10/05 10:44:14;;;;;;;7.35;3.38;;;;;;;;;;4975115;28;93412;-64
2022/10/05 10:46:59;;;;;;;5.18;3.30;;;;;;;;;;4974800;28;93231;-65
2022/10/05 10:49:45;;;;;;;12.00;3.70;;;;;;;;;;4976210;28;96666;-65
2022/10/05 10:52:14;;;;;;;10.10;3.63;;;;;;;;;;4974188;28;92397;-65
2022/10/05 10:55:00;;;;;;;7.75;3.55;;;;;;;;;;4975020;28;93115;-66
2022/10/05 10:57:44;;;;;;;17.88;3.17;;;;;;;;;;4974587;28;93398;-66
2022/10/05 11:00:29;;;;;;;6.45;3.70;;;;;;;;;;4993292;28;92433;-65
2022/10/05 11:02:55;;;;;;;10.02;3.45;;;;;;;;;;4994871;28;93413;-65
2022/10/05 11:05:27;;;;;;;6.03;3.67;;;;;;;;;;4975202;28;92535;-65
2022/10/05 11:08:12;;;;;;;8.07;3.13;;;;;;;;;;4978925;28;91754;-65
2022/10/05 11:10:57;;;;;;;17.08;4.30;;;;;;;;;;4995521;28;93414;-65
2022/10/05 11:13:29;;;;;;;8.43;3.08;;;;;;;;;;4994689;28;92470;-65
2022/10/05 11:16:02;;;;;;;6.00;3.47;;;;;;;;;;4981166;28;94735;-66
2022/10/05 11:18:34;;;;;;;10.30;3.30;;;;;;;;;;4973149;28;94467;-66
2022/10/05 11:21:00;;;;;;;10.38;3.65;;;;;;;;;;4973606;28;92423;-64
2022/10/05 11:23:26;;;;;;;15.52;4.50;;;;;;;;;;4974454;28;93203;-65
2022/10/05 11:26:02;;;;;;;8.60;3.55;;;;;;;;;;4974440;28;93430;-65
2022/10/05 11:28:47;;;;;;;5.38;2.97;;;;;;;;;;4973957;28;92527;-64
2022/10/05 11:31:31;;;;;;;4.45;3.35;;;;;;;;;;4973861;28;93078;-65
2022/10/05 11:34:16;;;;;;;4.25;3.15;;;;;;;;;;4976278;28;93813;-65
2022/10/05 11:37:02;;;;;;;3.60;3.10;;;;;;;;;;4970701;28;93641;-65
2022/10/05 11:39:35;;;;;;;6.28;3.25;;;;;;;;;;4972352;28;93464;-65
2022/10/05 11:42:12;;;;;;;7.78;3.05;;;;;;;;;;4989477;28;94944;-66
2022/10/05 11:44:56;;;;;;;5.90;2.88;;;;;;;;;;4983682;28;95558;-66
2022/10/05 11:47:45;;;;;;;13.80;3.08;;;;;;;;;;4966549;28;93442;-65
2022/10/05 11:50:21;;;;;;;12.50;3.53;;;;;;;;;;4981890;28;93379;-66
2022/10/05 11:52:57;;;;;;;11.38;2.85;;;;;;;;;;4994336;28;93165;-65
2022/10/05 11:55:26;;;;;;;6.80;2.60;;;;;;;;;;4983164;28;94605;-65
2022/10/05 11:57:57;;;;;;;6.57;3.13;;;;;;;;;;4977238;28;92532;-65
2022/10/05 12:00:23;;;;;;;4.88;2.42;;;;;;;;;;4979779;28;93742;-65
2022/10/05 12:03:09;;;;;;;10.40;2.50;;;;;;;;;;4973931;28;93237;-65
2022/10/05 12:05:45;;;;;;;10.57;2.47;;;;;;;;;;4983333;28;93139;-65
2022/10/05 12:08:20;;;;;;;9.00;2.80;;;;;;;;;;4991974;28;95838;-65
2022/10/05 12:10:56;;;;;;;7.00;2.53;;;;;;;;;;4995618;28;92813;-65
2022/10/05 12:13:25;;;;;;;3.78;1.88;;;;;;;;;;4997223;28;93197;-65
2022/10/05 12:16:12;;;;;;;11.15;2.50;;;;;;;;;;4983933;28;94790;-65
2022/10/05 12:18:46;;;;;;;4.10;2.13;;;;;;;;;;4983435;28;92612;-65
2022/10/05 12:21:40;;;;;;;7.20;2.20;;;;;;;;;;4978735;28;93183;-65
2022/10/05 12:24:12;;;;;;;6.80;2.45;;;;;;;;;;4975888;28;92453;-65
2022/10/05 12:26:43;;;;;;;5.45;2.42;;;;;;;;;;4989004;28;94206;-66
2022/10/05 12:29:20;;;;;;;4.65;2.08;;;;;;;;;;4985100;28;93393;-65
2022/10/05 12:31:51;;;;;;;5.25;2.40;;;;;;;;;;4977385;28;92450;-65
2022/10/05 12:34:22;;;;;;;8.88;2.38;;;;;;;;;;4976894;28;95047;-65
2022/10/05 12:36:55;;;;;;;4.78;2.58;;;;;;;;;;4991691;28;93429;-65
2022/10/05 12:39:49;;;;;;;4.97;2.22;;;;;;;;;;4974620;28;93504;-65
2022/10/05 12:42:28;;;;;;;3.72;1.90;;;;;;;;;;4977005;28;93094;-65
2022/10/05 12:45:13;;;;;;;8.20;2.17;;;;;;;;;;4982636;28;95474;-65
2022/10/05 12:47:39;;;;;;;5.75;2.08;;;;;;;;;;4968524;28;93147;-66
2022/10/05 12:50:14;;;;;;;7.47;2.78;;;;;;;;;;4976366;28;93481;-65
2022/10/05 12:53:00;;;;;;;4.97;2.40;;;;;;;;;;4977168;28;91748;-66
2022/10/05 12:55:56;;;;;;;11.73;2.45;;;;;;;;;;4983111;28;92417;-65
2022/10/05 12:58:35;;;;;;;4.53;2.25;;;;;;;;;;4982679;28;93438;-65
2022/10/05 13:01:17;;;;;;;6.63;3.13;;;;;;;;;;4983202;28;94982;-66
2022/10/05 13:03:53;;;;;;;2.72;2.05;;;;;;;;;;4992557;28;95565;-67
2022/10/05 13:06:27;;;;;;;5.75;2.28;;;;;;;;;;4995749;28;94765;-67
2022/10/05 13:09:01;;;;;;;10.85;2.70;;;;;;;;;;4999415;28;92508;-67
2022/10/05 13:11:41;;;;;;;6.93;2.20;;;;;;;;;;4969340;28;97981;-66
2022/10/05 13:14:22;;;;;;;6.68;2.05;;;;;;;;;;4981586;28;92854;-69
2022/10/05 13:16:58;;;;;;;7.97;2.63;;;;;;;;;;4976871;28;92896;-68
2022/10/05 13:19:33;;;;;;;4.47;2.80;;;;;;;;;;4976090;28;92638;-66
2022/10/05 13:22:08;;;;;;;4.70;2.53;;;;;;;;;;4974573;28;92626;-66
2022/10/05 13:24:43;;;;;;;5.55;2.90;;;;;;;;;;4975375;28;93155;-67
2022/10/05 13:27:10;;;;;;;6.63;2.42;;;;;;;;;;4973769;28;96804;-67
2022/10/05 13:29:43;;;;;;;10.68;2.88;;;;;;;;;;4979508;28;92714;-67
2022/10/05 13:32:15;;;;;;;7.55;3.22;;;;;;;;;;4975895;28;93320;-67
2022/10/05 13:34:47;;;;;;;7.05;2.63;;;;;;;;;;4988833;28;92468;-66
2022/10/05 13:37:16;;;;;;;5.38;2.72;;;;;;;;;;4976300;28;93687;-66
2022/10/05 13:39:59;;;;;;;8.48;2.97;;;;;;;;;;4991763;28;93520;-67
2022/10/05 13:42:43;;;;;;;3.38;2.45;;;;;;;;;;4996050;28;92558;-66
2022/10/05 13:45:18;;;;;;;6.47;2.10;;;;;;;;;;4974427;28;93369;-65
2022/10/05 13:47:54;;;;;;;4.72;2.25;;;;;;;;;;4976011;28;94868;-66
2022/10/05 13:50:27;;;;;;;8.75;2.95;;;;;;;;;;4978459;28;92859;-66
2022/10/05 13:53:04;;;;;;;5.93;2.42;;;;;;;;;;4986750;28;94797;-66
2022/10/05 13:55:40;;;;;;;4.88;2.13;;;;;;;;;;4990213;28;92537;-66
2022/10/05 13:58:12;;;;;;;8.18;2.40;;;;;;;;;;4994001;28;93140;-66
2022/10/05 14:00:44;;;;;;;11.82;2.40;;;;;;;;;;4995089;28;94771;-67
2022/10/05 14:03:23;;;;;;;6.47;2.17;;;;;;;;;;4974383;28;92503;-66
2022/10/05 14:05:55;;;;;;;6.18;2.28;;;;;;;;;;4975779;28;93314;-66
2022/10/05 14:08:24;;;;;;;5.18;2.05;;;;;;;;;;4974753;28;94476;-66
2022/10/05 14:10:52;;;;;;;6.57;2.25;;;;;;;;;;4974639;28;91727;-67
2022/10/05 14:13:18;;;;;;;8.50;2.85;;;;;;;;;;4987474;28;93455;-66
2022/10/05 14:15:54;;;;;;;7.70;2.38;;;;;;;;;;4987532;28;94797;-65
2022/10/05 14:18:28;;;;;;;7.95;2.60;;;;;;;;;;4974197;28;94720;-66
2022/10/05 14:20:59;;;;;;;5.43;2.13;;;;;;;;;;4981351;28;93405;-66
2022/10/05 14:23:26;;;;;;;7.28;1.98;;;;;;;;;;4986164;28;92454;-66
2022/10/05 14:25:53;;;;;;;4.45;2.20;;;;;;;;;;4987260;28;93420;-66
2022/10/05 14:28:19;;;;;;;6.07;2.25;;;;;;;;;;4974999;28;93383;-66
2022/10/05 14:30:54;;;;;;;16.35;2.65;;;;;;;;;;4991253;28;93269;-66
2022/10/05 14:33:25;;;;;;;6.68;2.22;;;;;;;;;;4978517;28;93359;-67
2022/10/05 14:35:53;;;;;;;21.80;2.53;;;;;;;;;;4987651;28;92584;-66
2022/10/05 14:38:21;;;;;;;5.68;1.90;;;;;;;;;;4985041;28;92423;-67
2022/10/05 14:41:06;;;;;;;4.40;2.17;;;;;;;;;;4957496;28;94414;-66
2022/10/05 14:43:33;;;;;;;7.05;1.95;;;;;;;;;;4986749;28;94909;-65
2022/10/05 14:46:01;;;;;;;5.07;1.90;;;;;;;;;;4985809;28;95511;-66
2022/10/05 14:48:36;;;;;;;11.10;2.10;;;;;;;;;;4975325;28;92612;-66
2022/10/05 14:51:09;;;;;;;4.88;2.00;;;;;;;;;;4973824;28;92704;-66
2022/10/05 14:53:38;;;;;;;9.18;2.53;;;;;;;;;;4986212;28;93848;-65
2022/10/05 14:56:23;;;;;;;4.07;1.75;;;;;;;;;;4994758;28;93820;-66
2022/10/05 14:59:08;;;;;;;11.52;2.85;;;;;;;;;;4994949;28;92427;-66
2022/10/05 15:01:35;;;;;;;15.00;1.70;;;;;;;;;;4995185;28;91818;-65
2022/10/05 15:04:22;;;;;;;9.23;1.67;;;;;;;;;;4992237;28;92509;-66
2022/10/05 15:07:10;;;;;;;5.47;1.95;;;;;;;;;;4986871;28;94168;-66
2022/10/05 15:09:36;;;;;;;4.70;1.60;;;;;;;;;;4977749;28;96823;-65
2022/10/05 15:12:02;;;;;;;18.27;2.05;;;;;;;;;;4994596;28;92405;-66
2022/10/05 15:14:33;;;;;;;3.42;1.63;;;;;;;;;;4975112;28;93174;-65
2022/10/05 15:17:11;;;;;;;7.57;2.85;;;;;;;;;;4971750;28;93368;-66
2022/10/05 15:19:58;;;;;;;3.90;1.60;;;;;;;;;;4975307;28;92379;-66
2022/10/05 15:22:30;;;;;;;2.90;1.98;;;;;;;;;;4976832;28;94188;-65
2022/10/05 15:25:03;;;;;;;2.60;1.90;;;;;;;;;;4973838;28;92512;-66
2022/10/05 15:27:35;;;;;;;3.30;1.85;;;;;;;;;;4975265;28;94197;-65